Eustis, Florida
Current Conditions -  °F | °C
As of 9:53 PM on Monday 22 Dec 2014 (Local Time) from KLEE Reporting Station
Haze Haze  
Wind Chill: 67°   Ceiling: Unl
Heat Index: 67°   Visibility: 4mi
Dew Point: 66°   Wind: 0mph
Humidity: 97%   Direction: NA
Pressure: 29.96"   Gusts: NA
Location:  28.85°N, 81.68°W
Report Text: KLEE 230253Z AUTO 00000KT 4SM BR FEW042 19/19 A2996 RMK AO2 SLP144 T01940189 50010
Loading
Personal Weather Stations






























Interactive Weather Map New forecast layout! Learn more

10-Day Weather Forecast

Advertisements
Track Severe Weather on mobile